createdAt,value
2023-01-21T00:01:10.756Z,10.77
2023-01-21T00:03:37.914Z,10.43
2023-01-21T00:06:05.931Z,10.18
2023-01-21T00:08:33.050Z,10.65
2023-01-21T00:11:14.609Z,10.35
2023-01-21T00:13:43.029Z,9.30
2023-01-21T00:16:11.462Z,8.88
2023-01-21T00:18:38.560Z,8.93
2023-01-21T00:21:05.685Z,8.48
2023-01-21T00:23:32.657Z,7.40
2023-01-21T00:26:01.334Z,8.48
2023-01-21T00:28:29.698Z,8.23
2023-01-21T00:30:58.445Z,8.32
2023-01-21T00:33:25.787Z,8.25
2023-01-21T00:36:06.287Z,7.85
2023-01-21T00:38:33.586Z,6.97
2023-01-21T00:41:06.253Z,7.68
2023-01-21T00:43:33.544Z,6.95
2023-01-21T00:46:00.557Z,7.05
2023-01-21T00:48:28.730Z,7.88
2023-01-21T00:50:59.152Z,6.63
2023-01-21T00:53:30.827Z,7.22
2023-01-21T00:56:02.279Z,6.60
2023-01-21T00:58:30.101Z,5.72
2023-01-21T01:01:13.124Z,6.65
2023-01-21T01:03:40.933Z,7.47
2023-01-21T01:06:19.898Z,5.70
2023-01-21T01:08:47.591Z,6.38
2023-01-21T01:11:14.737Z,6.55
2023-01-21T01:13:41.970Z,5.82
2023-01-21T01:16:10.805Z,6.07
2023-01-21T01:18:38.299Z,6.32
2023-01-21T01:21:06.467Z,5.75
2023-01-21T01:23:33.386Z,5.05
2023-01-21T01:26:03.470Z,6.43
2023-01-21T01:28:31.286Z,5.22
2023-01-21T01:30:58.913Z,5.03
2023-01-21T01:33:27.388Z,5.97
2023-01-21T01:35:54.312Z,5.00
2023-01-21T01:38:22.914Z,5.07
2023-01-21T01:40:52.678Z,4.97
2023-01-21T01:43:47.027Z,5.00
2023-01-21T01:46:14.100Z,4.90
2023-01-21T01:48:42.508Z,4.70
2023-01-21T01:51:09.741Z,5.25
2023-01-21T01:53:41.593Z,5.17
2023-01-21T01:56:08.737Z,4.40
2023-01-21T01:58:35.960Z,4.20
2023-01-21T02:01:03.637Z,4.82
2023-01-21T02:03:47.135Z,4.32
2023-01-21T02:06:15.810Z,3.92
2023-01-21T02:08:47.440Z,4.47
2023-01-21T02:11:19.164Z,4.47
2023-01-21T02:13:51.722Z,3.97
2023-01-21T02:16:36.824Z,3.90
2023-01-21T02:19:26.421Z,4.20
2023-01-21T02:22:16.640Z,4.25
2023-01-21T02:24:52.488Z,3.90
2023-01-21T02:27:48.782Z,4.23
2023-01-21T02:30:43.725Z,4.20
2023-01-21T02:33:35.485Z,4.30
2023-01-21T02:36:10.264Z,4.67
2023-01-21T02:39:05.714Z,4.25
2023-01-21T02:41:57.045Z,3.30
2023-01-21T02:45:13.692Z,4.72
2023-01-21T02:47:52.741Z,3.42
2023-01-21T02:50:30.464Z,4.15
2023-01-21T02:52:58.580Z,4.00
2023-01-21T02:55:36.529Z,3.95
2023-01-21T02:58:10.856Z,3.72
2023-01-21T03:01:15.502Z,3.60
2023-01-21T03:03:48.133Z,3.33
2023-01-21T03:06:36.876Z,3.97
2023-01-21T03:09:22.450Z,3.88
2023-01-21T03:11:59.747Z,4.13
2023-01-21T03:14:53.356Z,3.70
2023-01-21T03:17:23.172Z,3.70
2023-01-21T03:19:53.592Z,3.70
2023-01-21T03:22:25.702Z,4.13
2023-01-21T03:24:56.170Z,3.40
2023-01-21T03:27:27.064Z,3.40
2023-01-21T03:30:02.296Z,3.80
2023-01-21T03:32:33.065Z,3.47
2023-01-21T03:35:03.275Z,3.63
2023-01-21T03:37:32.812Z,4.00
2023-01-21T03:40:26.805Z,3.70
2023-01-21T03:42:56.531Z,3.53
2023-01-21T03:45:36.022Z,3.80
2023-01-21T03:48:13.644Z,3.47
2023-01-21T03:50:46.400Z,3.40
2023-01-21T03:53:13.615Z,3.97
2023-01-21T03:55:40.503Z,3.30
2023-01-21T03:58:07.397Z,3.50
2023-01-21T04:00:34.411Z,3.80
2023-01-21T04:03:01.346Z,3.70
2023-01-21T04:05:28.290Z,3.27
2023-01-21T04:07:55.249Z,3.80
2023-01-21T04:10:22.075Z,3.63
2023-01-21T04:12:48.979Z,3.77
2023-01-21T04:15:15.915Z,3.53
2023-01-21T04:17:42.760Z,3.77
2023-01-21T04:20:10.186Z,3.70
2023-01-21T04:22:37.105Z,3.70
2023-01-21T04:25:05.342Z,3.77
2023-01-21T04:27:32.326Z,3.50
2023-01-21T04:29:59.244Z,3.80
2023-01-21T04:32:26.130Z,3.87
2023-01-21T04:34:53.253Z,3.23
2023-01-21T04:37:20.227Z,2.93
2023-01-21T04:39:47.336Z,3.50
2023-01-21T04:42:14.271Z,3.30
2023-01-21T04:44:41.220Z,3.33
2023-01-21T04:47:08.063Z,3.60
2023-01-21T04:49:35.028Z,3.40
2023-01-21T04:52:01.921Z,3.40
2023-01-21T04:54:28.831Z,3.13
2023-01-21T04:56:55.711Z,3.83
2023-01-21T04:59:22.582Z,3.23
2023-01-21T05:01:49.494Z,3.43
2023-01-21T05:04:16.516Z,3.43
2023-01-21T05:06:43.394Z,2.93
2023-01-21T05:09:10.243Z,3.20
2023-01-21T05:11:37.163Z,2.93
2023-01-21T05:14:04.077Z,3.60
2023-01-21T05:16:31.110Z,3.47
2023-01-21T05:18:58.049Z,3.00
2023-01-21T05:21:25.022Z,3.10
2023-01-21T05:23:51.932Z,3.20
2023-01-21T05:26:19.525Z,3.57
2023-01-21T05:28:46.471Z,3.67
2023-01-21T05:31:13.589Z,3.30
2023-01-21T05:33:40.601Z,2.67
2023-01-21T05:36:07.925Z,3.10
2023-01-21T05:38:34.827Z,3.30
2023-01-21T05:41:03.505Z,3.00
2023-01-21T05:43:30.763Z,3.40
2023-01-21T05:45:58.132Z,2.90
2023-01-21T05:48:25.402Z,2.87
2023-01-21T05:50:52.493Z,2.80
2023-01-21T05:53:19.574Z,2.83
2023-01-21T05:55:46.503Z,3.30
2023-01-21T05:58:13.426Z,3.37
2023-01-21T06:00:42.032Z,3.37
2023-01-21T06:03:09.418Z,4.00
2023-01-21T06:05:36.500Z,3.13
2023-01-21T06:08:03.545Z,3.20
2023-01-21T06:10:30.565Z,3.30
2023-01-21T06:12:57.432Z,3.27
2023-01-21T06:15:25.787Z,3.40
2023-01-21T06:17:53.360Z,3.80
2023-01-21T06:20:21.059Z,3.80
2023-01-21T06:22:48.024Z,3.47
2023-01-21T06:25:15.043Z,3.53
2023-01-21T06:27:41.931Z,3.80
2023-01-21T06:30:10.709Z,3.20
2023-01-21T06:32:37.679Z,3.40
2023-01-21T06:35:04.876Z,4.27
2023-01-21T06:37:31.796Z,3.37
2023-01-21T06:39:58.758Z,3.60
2023-01-21T06:42:25.733Z,3.70
2023-01-21T06:44:52.560Z,4.07
2023-01-21T06:47:19.529Z,3.93
2023-01-21T06:49:46.365Z,4.40
2023-01-21T06:52:13.270Z,3.93
2023-01-21T06:54:40.163Z,4.67
2023-01-21T06:57:07.039Z,4.10
2023-01-21T06:59:33.982Z,4.70
2023-01-21T07:02:01.439Z,4.60
2023-01-21T07:04:28.728Z,4.30
2023-01-21T07:06:55.590Z,3.70
2023-01-21T07:09:22.527Z,4.40
2023-01-21T07:11:49.986Z,4.47
2023-01-21T07:14:16.974Z,4.23
2023-01-21T07:16:44.106Z,4.37
2023-01-21T07:19:12.092Z,4.53
2023-01-21T07:21:41.418Z,4.53
2023-01-21T07:24:09.481Z,4.87
2023-01-21T07:26:38.289Z,4.67
2023-01-21T07:29:09.314Z,4.53
2023-01-21T07:31:36.612Z,4.50
2023-01-21T07:34:05.464Z,4.93
2023-01-21T07:36:32.718Z,5.13
2023-01-21T07:39:01.036Z,4.20
2023-01-21T07:41:28.077Z,4.60
2023-01-21T07:43:55.309Z,4.70
2023-01-21T07:46:23.294Z,4.40
2023-01-21T07:48:51.895Z,5.17
2023-01-21T07:51:19.803Z,4.87
2023-01-21T07:53:47.077Z,4.87
2023-01-21T07:56:15.024Z,5.03
2023-01-21T07:58:42.087Z,4.80
2023-01-21T08:01:10.470Z,4.70
2023-01-21T08:03:38.036Z,4.40
2023-01-21T08:06:08.166Z,4.80
2023-01-21T08:08:35.552Z,5.43
2023-01-21T08:11:02.574Z,5.13
2023-01-21T08:13:29.491Z,4.83
2023-01-21T08:15:57.391Z,4.90
2023-01-21T08:18:25.301Z,5.17
2023-01-21T08:20:56.211Z,5.00
2023-01-21T08:23:23.220Z,4.30
2023-01-21T08:25:50.237Z,5.05
2023-01-21T08:28:17.373Z,4.88
2023-01-21T08:30:44.646Z,4.50
2023-01-21T08:33:11.709Z,5.00
2023-01-21T08:35:38.811Z,4.80
2023-01-21T08:38:05.938Z,4.90
2023-01-21T08:40:32.828Z,4.85
2023-01-21T08:43:03.522Z,4.40
2023-01-21T08:45:30.980Z,3.80
2023-01-21T08:47:57.870Z,4.30
2023-01-21T08:50:25.018Z,4.45
2023-01-21T08:52:54.186Z,4.07
2023-01-21T08:55:22.314Z,4.53
2023-01-21T08:57:52.163Z,4.30
2023-01-21T09:00:20.103Z,4.68
2023-01-21T09:02:47.068Z,4.53
2023-01-21T09:05:14.165Z,4.82
2023-01-21T09:07:41.212Z,4.43
2023-01-21T09:10:08.978Z,4.10
2023-01-21T09:12:35.935Z,3.83
2023-01-21T09:15:02.949Z,4.10
2023-01-21T09:17:30.818Z,3.90
2023-01-21T09:19:57.722Z,4.22
2023-01-21T09:22:24.629Z,4.20
2023-01-21T09:24:51.446Z,3.88
2023-01-21T09:27:18.359Z,4.63
2023-01-21T09:29:45.867Z,4.20
2023-01-21T09:32:12.790Z,3.80
2023-01-21T09:34:39.771Z,3.40
2023-01-21T09:37:06.761Z,3.67
2023-01-21T09:39:33.662Z,3.67
2023-01-21T09:42:00.576Z,3.65
2023-01-21T09:44:44.154Z,3.97
2023-01-21T09:47:26.375Z,4.20
2023-01-21T09:50:00.548Z,3.77
2023-01-21T09:52:43.178Z,4.47
2023-01-21T09:55:19.722Z,3.58
2023-01-21T09:58:04.925Z,3.90
2023-01-21T10:00:57.236Z,3.35
2023-01-21T10:03:43.595Z,3.65
2023-01-21T10:06:32.978Z,3.78
2023-01-21T10:09:15.300Z,4.05
2023-01-21T10:12:06.910Z,3.92
2023-01-21T10:14:39.647Z,3.53
2023-01-21T10:17:14.621Z,4.00
2023-01-21T10:19:51.748Z,3.33
2023-01-21T10:22:27.939Z,4.00
2023-01-21T10:25:13.461Z,3.80
2023-01-21T10:27:42.657Z,3.95
2023-01-21T10:30:32.072Z,3.22
2023-01-21T10:32:59.231Z,3.78
2023-01-21T10:35:44.027Z,3.80
2023-01-21T10:38:23.468Z,4.25
2023-01-21T10:41:14.888Z,3.45
2023-01-21T10:44:01.722Z,3.53
2023-01-21T10:46:42.598Z,3.88
2023-01-21T10:49:25.975Z,3.97
2023-01-21T10:52:07.068Z,4.60
2023-01-21T10:54:40.124Z,4.28
2023-01-21T10:57:39.023Z,4.05
2023-01-21T11:00:18.773Z,4.47
2023-01-21T11:02:50.635Z,3.92
2023-01-21T11:05:19.083Z,3.83
2023-01-21T11:07:48.294Z,5.03
2023-01-21T11:10:26.933Z,3.65
2023-01-21T11:12:55.447Z,3.20
2023-01-21T11:15:23.493Z,3.70
2023-01-21T11:17:56.694Z,4.13
2023-01-21T11:20:39.064Z,3.25
2023-01-21T11:23:07.939Z,4.18
2023-01-21T11:25:41.934Z,3.67
2023-01-21T11:28:26.731Z,3.55
2023-01-21T11:31:05.224Z,3.93
2023-01-21T11:33:33.487Z,3.83
2023-01-21T11:36:14.186Z,3.57
2023-01-21T11:38:41.675Z,4.13
2023-01-21T11:41:22.506Z,3.70
2023-01-21T11:44:16.723Z,3.30
2023-01-21T11:46:44.680Z,2.70
2023-01-21T11:49:11.539Z,4.17
2023-01-21T11:51:40.659Z,3.30
2023-01-21T11:54:20.619Z,3.65
2023-01-21T11:56:56.963Z,3.00
2023-01-21T11:59:27.023Z,3.38
2023-01-21T12:02:15.284Z,3.80
2023-01-21T12:05:01.438Z,3.03
2023-01-21T12:07:34.018Z,4.35
2023-01-21T12:10:00.909Z,3.58
2023-01-21T12:12:57.472Z,3.13
2023-01-21T12:15:58.694Z,3.43
2023-01-21T12:18:45.842Z,3.23
2023-01-21T12:21:37.438Z,3.08
2023-01-21T12:24:25.718Z,2.90
2023-01-21T12:27:14.822Z,2.57
2023-01-21T12:30:00.880Z,3.43
2023-01-21T12:32:32.939Z,3.57
2023-01-21T12:35:08.709Z,3.43
2023-01-21T12:37:55.005Z,3.67
2023-01-21T12:40:34.354Z,3.47
2023-01-21T12:43:13.836Z,3.50
2023-01-21T12:45:47.729Z,2.90
2023-01-21T12:48:35.908Z,2.80
2023-01-21T12:51:08.549Z,2.73
2023-01-21T12:53:47.231Z,3.57
2023-01-21T12:56:48.200Z,2.63
2023-01-21T12:59:31.632Z,2.73
2023-01-21T13:02:33.430Z,3.07
2023-01-21T13:05:34.085Z,3.10
2023-01-21T13:08:18.501Z,2.73
2023-01-21T13:10:56.090Z,2.83
2023-01-21T13:13:47.417Z,2.90
2023-01-21T13:16:15.030Z,2.97
2023-01-21T13:18:43.921Z,2.70
2023-01-21T13:21:36.500Z,2.93
2023-01-21T13:24:35.033Z,2.57
2023-01-21T13:27:10.860Z,2.60
2023-01-21T13:29:52.933Z,2.90
2023-01-21T13:32:38.682Z,3.23
2023-01-21T13:35:19.759Z,2.93
2023-01-21T13:38:10.770Z,3.37
2023-01-21T13:41:00.544Z,3.53
2023-01-21T13:44:22.991Z,3.70
2023-01-21T13:47:21.734Z,3.40
2023-01-21T13:50:23.796Z,2.90
2023-01-21T13:53:19.914Z,3.10
2023-01-21T13:56:05.427Z,2.90
2023-01-21T13:58:41.555Z,3.23
2023-01-21T14:01:20.261Z,3.53
2023-01-21T14:03:56.761Z,3.10
2023-01-21T14:06:33.539Z,3.65
2023-01-21T14:11:48.034Z,3.13
2023-01-21T14:14:24.556Z,3.50
2023-01-21T14:17:06.678Z,4.18
2023-01-21T14:19:36.365Z,4.07
2023-01-21T14:22:23.240Z,3.47
2023-01-21T14:25:02.359Z,4.03
2023-01-21T14:27:38.528Z,3.70
2023-01-21T14:30:05.501Z,4.50
2023-01-21T14:32:54.036Z,3.87
2023-01-21T14:35:33.047Z,3.33
2023-01-21T14:38:13.710Z,4.10
2023-01-21T14:41:18.775Z,4.73
2023-01-21T14:43:48.852Z,3.60
2023-01-21T14:46:36.531Z,4.00
2023-01-21T14:49:08.959Z,3.70
2023-01-21T14:51:41.743Z,4.20
2023-01-21T14:54:17.043Z,3.67
2023-01-21T14:56:58.052Z,4.00
2023-01-21T14:59:37.397Z,3.30
2023-01-21T15:02:19.550Z,3.90
2023-01-21T15:04:56.391Z,2.80
2023-01-21T15:09:55.725Z,2.40
2023-01-21T15:12:30.030Z,3.30
2023-01-21T15:14:59.608Z,3.07
2023-01-21T15:17:57.696Z,3.50
2023-01-21T15:20:42.984Z,4.47
2023-01-21T15:23:31.412Z,3.73
2023-01-21T15:26:07.507Z,4.20
2023-01-21T15:28:44.973Z,4.20
2023-01-21T15:31:20.682Z,2.67
2023-01-21T15:33:51.814Z,3.60
2023-01-21T15:36:25.926Z,3.40
2023-01-21T15:38:56.932Z,2.57
2023-01-21T15:41:34.492Z,3.60
2023-01-21T15:44:32.641Z,3.20
2023-01-21T15:47:05.427Z,2.53
2023-01-21T15:49:47.482Z,2.63
2023-01-21T15:52:41.737Z,3.17
2023-01-21T15:55:39.591Z,2.97
2023-01-21T15:58:25.178Z,2.70
2023-01-21T16:01:07.312Z,2.83
2023-01-21T16:04:05.436Z,2.43
2023-01-21T16:07:08.832Z,3.35
2023-01-21T16:10:03.553Z,2.33
2023-01-21T16:12:48.743Z,2.57
2023-01-21T16:15:34.665Z,2.93
2023-01-21T16:18:26.300Z,2.50
2023-01-21T16:20:55.536Z,2.63
2023-01-21T16:23:26.711Z,2.70
2023-01-21T16:25:54.254Z,2.73
2023-01-21T16:28:21.556Z,2.80
2023-01-21T16:31:01.817Z,2.60
2023-01-21T16:33:28.885Z,2.30
2023-01-21T16:35:58.372Z,2.33
2023-01-21T16:38:30.340Z,3.30
2023-01-21T16:41:18.339Z,2.60
2023-01-21T16:43:57.402Z,2.73
2023-01-21T16:46:26.068Z,3.00
2023-01-21T16:48:59.694Z,2.73
2023-01-21T16:51:32.973Z,2.27
2023-01-21T16:54:18.062Z,2.70
2023-01-21T16:57:04.092Z,2.57
2023-01-21T16:59:38.756Z,2.90
2023-01-21T17:02:16.822Z,2.73
2023-01-21T17:04:44.007Z,2.77
2023-01-21T17:07:22.919Z,3.20
2023-01-21T17:10:20.851Z,3.00
2023-01-21T17:15:31.216Z,2.93
2023-01-21T17:18:00.681Z,3.07
2023-01-21T17:20:53.817Z,3.97
2023-01-21T17:23:31.346Z,2.80
2023-01-21T17:26:16.955Z,3.10
2023-01-21T17:28:53.645Z,3.10
2023-01-21T17:34:07.501Z,3.50
2023-01-21T17:36:39.339Z,3.00
2023-01-21T17:39:08.130Z,3.00
2023-01-21T17:41:37.932Z,2.70
2023-01-21T17:44:15.889Z,3.50
2023-01-21T17:46:48.908Z,3.13
2023-01-21T17:49:19.043Z,3.20
2023-01-21T17:51:46.515Z,2.97
2023-01-21T17:54:24.738Z,3.57
2023-01-21T17:56:57.759Z,3.20
2023-01-21T17:59:41.903Z,2.43
2023-01-21T18:02:14.173Z,3.03
2023-01-21T18:04:41.515Z,3.33
2023-01-21T18:07:17.348Z,3.57
2023-01-21T18:09:44.472Z,3.92
2023-01-21T18:12:11.434Z,3.20
2023-01-21T18:14:38.468Z,3.27
2023-01-21T18:17:06.372Z,2.47
2023-01-21T18:19:36.715Z,3.43
2023-01-21T18:22:06.482Z,3.37
2023-01-21T18:24:35.565Z,2.70
2023-01-21T18:27:03.117Z,3.37
2023-01-21T18:29:31.082Z,2.53
2023-01-21T18:32:29.031Z,2.75
2023-01-21T18:34:56.091Z,3.08
2023-01-21T18:37:22.980Z,2.90
2023-01-21T18:39:49.976Z,3.17
2023-01-21T18:42:18.351Z,2.93
2023-01-21T18:44:45.469Z,3.20
2023-01-21T18:47:18.053Z,2.97
2023-01-21T18:49:45.563Z,2.60
2023-01-21T18:52:15.781Z,3.00
2023-01-21T18:54:42.697Z,2.47
2023-01-21T18:57:17.342Z,3.20
2023-01-21T18:59:44.428Z,2.63
2023-01-21T19:02:16.898Z,3.93
2023-01-21T19:04:44.932Z,2.70
2023-01-21T19:07:23.531Z,2.60
2023-01-21T19:09:51.338Z,3.07
2023-01-21T19:12:24.416Z,2.23
2023-01-21T19:14:51.352Z,2.90
2023-01-21T19:17:27.544Z,3.40
2023-01-21T19:19:54.993Z,3.17
2023-01-21T19:22:22.356Z,3.20
2023-01-21T19:24:49.652Z,4.93
2023-01-21T19:27:25.310Z,3.20
2023-01-21T19:29:52.415Z,3.17
2023-01-21T19:32:19.501Z,3.27
2023-01-21T19:34:46.508Z,2.97
2023-01-21T19:37:15.739Z,3.13
2023-01-21T19:39:42.786Z,2.73
2023-01-21T19:42:11.776Z,3.43
2023-01-21T19:44:41.640Z,2.97
2023-01-21T19:47:27.774Z,3.73
2023-01-21T19:49:54.706Z,3.00
2023-01-21T19:52:21.645Z,3.80
2023-01-21T19:54:49.177Z,3.33
2023-01-21T19:57:16.954Z,3.37
2023-01-21T19:59:44.811Z,3.33
2023-01-21T20:02:12.804Z,3.10
2023-01-21T20:04:39.775Z,3.80
2023-01-21T20:07:07.346Z,4.10
2023-01-21T20:09:34.245Z,4.50
2023-01-21T20:12:03.433Z,3.43
2023-01-21T20:14:33.475Z,3.43
2023-01-21T20:17:00.516Z,3.90
2023-01-21T20:19:27.764Z,4.70
2023-01-21T20:22:01.651Z,4.00
2023-01-21T20:24:33.558Z,3.53
2023-01-21T20:27:02.439Z,4.53
2023-01-21T20:29:29.432Z,4.50
2023-01-21T20:31:56.333Z,4.37
2023-01-21T20:34:23.598Z,4.77
2023-01-21T20:36:51.925Z,3.73
2023-01-21T20:39:18.810Z,5.17
2023-01-21T20:42:04.206Z,5.30
2023-01-21T20:44:31.264Z,4.53
2023-01-21T20:46:58.981Z,5.30
2023-01-21T20:49:25.811Z,5.43
2023-01-21T20:51:52.659Z,5.13
2023-01-21T20:54:19.587Z,4.60
2023-01-21T20:56:46.503Z,5.27
2023-01-21T20:59:14.672Z,5.53
2023-01-21T21:01:41.766Z,5.67
2023-01-21T21:04:08.573Z,5.23
2023-01-21T21:06:35.465Z,5.50
2023-01-21T21:09:02.719Z,5.97
2023-01-21T21:11:29.646Z,5.83
2023-01-21T21:13:56.640Z,6.23
2023-01-21T21:16:28.688Z,6.07
2023-01-21T21:18:56.516Z,6.07
2023-01-21T21:21:24.162Z,5.10
2023-01-21T21:23:52.490Z,6.20
2023-01-21T21:26:23.895Z,5.67
2023-01-21T21:28:54.889Z,6.40
2023-01-21T21:31:23.225Z,6.93
2023-01-21T21:33:50.770Z,5.83
2023-01-21T21:36:20.714Z,6.10
2023-01-21T21:38:48.967Z,5.80
2023-01-21T21:41:40.200Z,6.20
2023-01-21T21:44:08.813Z,6.90
2023-01-21T21:46:58.454Z,7.57
2023-01-21T21:49:26.054Z,6.40
2023-01-21T21:51:53.064Z,6.23
2023-01-21T21:54:20.420Z,6.07
2023-01-21T21:56:47.759Z,7.47
2023-01-21T21:59:15.524Z,6.00
2023-01-21T22:01:43.885Z,7.23
2023-01-21T22:04:11.453Z,6.73
2023-01-21T22:06:38.598Z,6.80
2023-01-21T22:09:06.127Z,7.17
2023-01-21T22:11:33.332Z,6.20
2023-01-21T22:14:04.152Z,6.77
2023-01-21T22:16:31.989Z,7.63
2023-01-21T22:19:01.367Z,6.60
2023-01-21T22:21:32.083Z,7.60
2023-01-21T22:23:59.511Z,6.77
2023-01-21T22:26:28.139Z,6.77
2023-01-21T22:28:55.085Z,6.63
2023-01-21T22:31:27.889Z,8.20
2023-01-21T22:33:56.011Z,8.17
2023-01-21T22:36:25.020Z,6.67
2023-01-21T22:38:52.196Z,8.23
2023-01-21T22:41:22.146Z,6.23
2023-01-21T22:43:49.634Z,6.93
2023-01-21T22:46:20.261Z,6.67
2023-01-21T22:48:47.296Z,7.87
2023-01-21T22:51:15.997Z,6.97
2023-01-21T22:53:46.012Z,7.73
2023-01-21T22:56:15.054Z,7.77
2023-01-21T22:58:42.263Z,7.57
2023-01-21T23:01:20.063Z,8.10
2023-01-21T23:03:47.195Z,7.00
2023-01-21T23:06:14.355Z,6.63
2023-01-21T23:08:41.259Z,7.10
2023-01-21T23:11:09.033Z,7.57
2023-01-21T23:13:36.122Z,7.23
2023-01-21T23:16:07.206Z,7.57
2023-01-21T23:18:36.307Z,7.53
2023-01-21T23:21:12.558Z,7.40
2023-01-21T23:23:39.730Z,7.53
2023-01-21T23:26:08.501Z,7.37
2023-01-21T23:28:36.151Z,7.10
2023-01-21T23:31:12.923Z,6.23
2023-01-21T23:36:13.607Z,7.03
2023-01-21T23:38:41.844Z,7.73
2023-01-21T23:41:11.399Z,7.00
2023-01-21T23:43:39.047Z,7.43
2023-01-21T23:46:16.551Z,7.37
2023-01-21T23:48:43.903Z,7.93
2023-01-21T23:51:13.610Z,6.47
2023-01-21T23:53:40.860Z,8.30
2023-01-21T23:56:12.921Z,8.43
2023-01-21T23:58:39.805Z,7.27
